Time;durP1;ratioP1;P1;durP2;ratioP2;P2;SDS_P1;SDS_P2;PMS_P1;PMS_P2;Temp;Humidity;BMP_temperature;BMP_pressure;BME280_temperature;BME280_humidity;BME280_pressure;Samples;Min_cycle;Max_cycle;Signal;HPM_P1;HPM_P2
2021/12/27 00:00:16;;;;;;;22.63;14.27;;;-3276.70;86.30;;;;;;5154859;27;20042;-78
2021/12/27 00:02:43;;;;;;;21.05;14.30;;;-3276.70;86.60;;;;;;5139038;27;20031;-77
2021/12/27 00:05:09;;;;;;;22.63;15.35;;;-3276.60;86.60;;;;;;5155181;27;20054;-78
2021/12/27 00:07:35;;;;;;;23.90;14.93;;;-3276.60;86.70;;;;;;5153821;27;20030;-76
2021/12/27 00:10:01;;;;;;;23.17;15.13;;;-3276.60;86.80;;;;;;5153672;27;20126;-76
2021/12/27 00:12:27;;;;;;;23.90;13.80;;;-3276.60;87.00;;;;;;5153951;27;20033;-76
2021/12/27 00:14:53;;;;;;;24.23;15.05;;;-3276.60;86.80;;;;;;5153697;27;20386;-77
2021/12/27 00:17:19;;;;;;;24.42;14.52;;;-3276.60;86.90;;;;;;5153746;27;20461;-77
2021/12/27 00:19:45;;;;;;;25.02;14.70;;;-3276.60;87.10;;;;;;5153403;27;20066;-77
2021/12/27 00:22:10;;;;;;;23.33;15.45;;;-3276.60;86.70;;;;;;5136083;27;20464;-76
2021/12/27 00:24:36;;;;;;;23.23;14.00;;;-3276.60;86.70;;;;;;5153588;27;20091;-78
2021/12/27 00:27:02;;;;;;;27.55;16.83;;;-3276.70;86.90;;;;;;5153335;27;20039;-76
2021/12/27 00:29:28;;;;;;;24.85;14.77;;;-3276.60;86.90;;;;;;5153222;27;20095;-77
2021/12/27 00:31:54;;;;;;;25.73;15.32;;;-3276.60;87.30;;;;;;5118873;27;20081;-77
2021/12/27 00:34:20;;;;;;;22.40;15.77;;;-3276.60;87.30;;;;;;5153265;27;20078;-77
2021/12/27 00:36:45;;;;;;;29.77;17.90;;;-3276.60;87.40;;;;;;5153569;27;20050;-78
2021/12/27 00:39:11;;;;;;;66.15;36.28;;;-3276.60;87.40;;;;;;5135940;27;20074;-77
2021/12/27 00:41:37;;;;;;;25.98;16.23;;;-3276.60;87.50;;;;;;5118841;27;20039;-76
2021/12/27 00:44:03;;;;;;;24.88;15.70;;;-3276.60;87.30;;;;;;5136317;27;20039;-76
2021/12/27 00:46:28;;;;;;;25.17;16.55;;;-3276.60;87.80;;;;;;5135818;27;20064;-76
2021/12/27 00:48:54;;;;;;;25.77;15.15;;;-3276.60;87.60;;;;;;5135938;27;20046;-78
2021/12/27 00:51:20;;;;;;;26.30;16.02;;;-3276.60;87.50;;;;;;5153118;27;20038;-77
2021/12/27 00:53:45;;;;;;;22.55;15.05;;;-3276.60;87.70;;;;;;5135890;27;20417;-78
2021/12/27 00:56:11;;;;;;;24.33;15.23;;;-3276.70;87.80;;;;;;5118642;27;20464;-76
2021/12/27 00:58:37;;;;;;;28.58;17.17;;;-3276.70;87.60;;;;;;5153381;27;20039;-77
2021/12/27 01:01:03;;;;;;;25.08;16.48;;;-3276.70;87.90;;;;;;5153087;27;20074;-77
2021/12/27 01:03:28;;;;;;;23.17;15.98;;;-3276.70;87.70;;;;;;5138479;27;20046;-77
2021/12/27 01:05:54;;;;;;;24.40;15.25;;;-3276.70;87.60;;;;;;5139382;27;20130;-77
2021/12/27 01:08:20;;;;;;;26.35;16.20;;;-3276.70;87.80;;;;;;5139368;27;20037;-76
2021/12/27 01:13:37;;;;;;;24.90;15.32;;;-3276.70;87.80;;;;;;5156950;27;20498;-77
2021/12/27 01:18:33;;;;;;;27.73;16.27;;;0.00;88.10;;;;;;5143563;27;20133;-77
2021/12/27 01:20:59;;;;;;;25.42;15.52;;;0.00;88.10;;;;;;5160271;27;20081;-76
2021/12/27 01:23:24;;;;;;;24.08;15.13;;;-3276.70;87.90;;;;;;5143111;27;20034;-77
2021/12/27 01:25:50;;;;;;;25.60;16.38;;;0.00;88.20;;;;;;5159957;27;20469;-77
2021/12/27 01:28:18;;;;;;;25.67;15.75;;;0.00;88.30;;;;;;5143352;27;20034;-78
2021/12/27 01:30:48;;;;;;;26.77;15.48;;;0.00;88.20;;;;;;5159992;27;20117;-77
2021/12/27 01:33:16;;;;;;;24.23;15.57;;;0.00;88.00;;;;;;5159941;27;20073;-75
2021/12/27 01:35:42;;;;;;;23.60;15.13;;;0.00;88.00;;;;;;5160123;27;20102;-77
2021/12/27 01:38:08;;;;;;;23.42;16.70;;;0.00;88.10;;;;;;5125743;27;20509;-76
2021/12/27 01:40:34;;;;;;;25.55;17.00;;;0.00;88.10;;;;;;5142950;27;20034;-76
2021/12/27 01:42:59;;;;;;;24.33;15.43;;;0.00;88.00;;;;;;5142884;27;20034;-78
2021/12/27 01:45:26;;;;;;;23.23;16.08;;;0.00;87.90;;;;;;5159904;27;20146;-77
2021/12/27 01:47:51;;;;;;;22.65;15.35;;;0.00;88.10;;;;;;5142350;27;20125;-77
2021/12/27 01:50:17;;;;;;;25.40;16.15;;;0.00;88.00;;;;;;5142403;27;20070;-77
2021/12/27 01:52:43;;;;;;;27.15;17.10;;;0.00;88.20;;;;;;5142568;27;20038;-77
2021/12/27 01:55:09;;;;;;;25.77;16.27;;;0.00;88.10;;;;;;5159487;27;20409;-78
2021/12/27 01:57:34;;;;;;;27.02;16.75;;;0.00;88.20;;;;;;5159532;27;20038;-77
2021/12/27 02:00:00;;;;;;;24.88;16.85;;;0.00;88.30;;;;;;5159449;27;20130;-77
2021/12/27 02:02:26;;;;;;;27.23;16.83;;;0.00;88.40;;;;;;5159398;27;20478;-78
2021/12/27 02:04:51;;;;;;;25.67;16.38;;;0.00;88.50;;;;;;5158931;27;20050;-77
2021/12/27 02:07:17;;;;;;;25.35;17.45;;;0.00;88.40;;;;;;5159242;27;20070;-77
2021/12/27 02:09:55;;;;;;;26.55;17.40;;;0.00;88.70;;;;;;5142060;27;20399;-76
2021/12/27 02:12:21;;;;;;;28.52;18.50;;;0.00;88.60;;;;;;5159277;27;20071;-76
2021/12/27 02:14:47;;;;;;;24.50;16.10;;;0.00;88.50;;;;;;5159082;27;20034;-77
2021/12/27 02:17:18;;;;;;;26.40;17.15;;;0.00;88.60;;;;;;5159148;27;20041;-76
2021/12/27 02:19:47;;;;;;;23.27;15.68;;;0.00;88.50;;;;;;5142045;27;20056;-76
2021/12/27 02:22:13;;;;;;;24.95;16.60;;;0.00;88.80;;;;;;5158887;27;20079;-77
2021/12/27 02:24:40;;;;;;;27.33;17.10;;;0.00;88.90;;;;;;5159094;27;20066;-77
2021/12/27 02:27:07;;;;;;;26.90;16.73;;;0.00;89.10;;;;;;5123874;27;20506;-75
2021/12/27 02:29:32;;;;;;;24.75;16.73;;;0.00;89.30;;;;;;5158848;27;20042;-76
2021/12/27 02:31:58;;;;;;;27.77;15.85;;;0.00;89.00;;;;;;5141755;27;20050;-75
2021/12/27 02:34:24;;;;;;;25.60;16.55;;;0.00;88.70;;;;;;5141450;27;20481;-76
2021/12/27 02:36:50;;;;;;;27.27;16.48;;;0.10;88.90;;;;;;5159217;27;20045;-77
2021/12/27 02:39:17;;;;;;;26.30;17.08;;;0.10;88.80;;;;;;5158910;27;20038;-77
2021/12/27 02:41:43;;;;;;;24.73;16.15;;;0.10;88.80;;;;;;5158592;27;20443;-78
2021/12/27 02:44:08;;;;;;;27.95;17.08;;;0.10;88.90;;;;;;5158702;27;20038;-77
2021/12/27 02:46:34;;;;;;;27.15;17.08;;;0.10;88.80;;;;;;5141123;27;20160;-77
2021/12/27 02:49:00;;;;;;;25.02;16.33;;;0.10;89.00;;;;;;5141498;27;20042;-77
2021/12/27 02:51:25;;;;;;;28.35;17.70;;;0.10;89.10;;;;;;5158304;27;20041;-77
2021/12/27 02:53:51;;;;;;;26.15;17.00;;;0.10;89.00;;;;;;5141400;27;20039;-78
2021/12/27 02:56:19;;;;;;;28.73;18.05;;;0.10;89.20;;;;;;5158536;27;20495;-76
2021/12/27 02:58:46;;;;;;;25.92;15.88;;;0.10;89.50;;;;;;5158493;27;20398;-77
2021/12/27 03:01:16;;;;;;;25.48;16.88;;;0.10;89.60;;;;;;5140920;27;20042;-75
2021/12/27 03:03:41;;;;;;;26.25;16.30;;;0.10;89.90;;;;;;5158165;27;20126;-78
2021/12/27 03:06:08;;;;;;;29.02;18.02;;;0.10;89.80;;;;;;5140598;27;20092;-77
2021/12/27 03:08:34;;;;;;;26.25;17.02;;;0.10;89.30;;;;;;5141062;27;20404;-77
2021/12/27 03:11:02;;;;;;;26.38;17.42;;;0.10;89.70;;;;;;5158312;27;20363;-77
2021/12/27 03:13:32;;;;;;;27.48;17.17;;;0.10;89.80;;;;;;5140989;27;20034;-76
2021/12/27 03:16:02;;;;;;;28.15;17.70;;;0.10;89.40;;;;;;5157828;27;20041;-77
2021/12/27 03:18:28;;;;;;;28.33;18.33;;;0.10;89.20;;;;;;5157872;27;20080;-77
2021/12/27 03:20:55;;;;;;;27.92;17.45;;;0.20;89.30;;;;;;5157924;27;20144;-77
2021/12/27 03:23:21;;;;;;;26.48;17.42;;;0.10;89.30;;;;;;5140290;27;20038;-75
2021/12/27 03:25:47;;;;;;;29.13;18.23;;;0.20;89.30;;;;;;5157711;27;20038;-77
2021/12/27 03:28:13;;;;;;;26.83;17.38;;;0.20;89.30;;;;;;5158017;27;20079;-77
2021/12/27 03:30:39;;;;;;;30.90;17.75;;;0.20;89.40;;;;;;5157528;27;20397;-77
2021/12/27 03:33:08;;;;;;;27.55;18.15;;;0.20;89.50;;;;;;5140660;27;20493;-76
2021/12/27 03:35:36;;;;;;;28.38;17.17;;;0.20;89.50;;;;;;5157516;27;20038;-77
2021/12/27 03:38:05;;;;;;;27.13;17.58;;;0.20;89.50;;;;;;5156591;27;20049;-77
2021/12/27 03:40:31;;;;;;;28.08;18.23;;;0.20;89.50;;;;;;5140072;27;20159;-77
2021/12/27 03:42:57;;;;;;;27.70;18.25;;;0.20;89.60;;;;;;5157450;27;20125;-76
2021/12/27 03:45:26;;;;;;;27.98;17.73;;;0.20;89.70;;;;;;5123017;27;20041;-77
2021/12/27 03:47:52;;;;;;;30.33;18.50;;;0.20;90.00;;;;;;5157423;27;20045;-77
2021/12/27 03:50:19;;;;;;;28.25;18.88;;;0.20;90.30;;;;;;5157619;27;20406;-76
2021/12/27 03:52:45;;;;;;;31.52;20.58;;;0.20;89.90;;;;;;5157247;27;20037;-77
2021/12/27 03:55:11;;;;;;;30.27;20.45;;;0.20;89.80;;;;;;5157124;27;20038;-77
2021/12/27 03:57:39;;;;;;;28.35;18.60;;;0.20;90.00;;;;;;5157149;27;20042;-78
2021/12/27 04:02:49;;;;;;;29.38;18.73;;;0.20;89.70;;;;;;5157298;27;20045;-78
2021/12/27 04:05:16;;;;;;;30.73;19.35;;;0.20;90.10;;;;;;5157014;27;20401;-77
2021/12/27 04:07:47;;;;;;;30.73;19.25;;;0.20;90.30;;;;;;5140008;27;20069;-76
2021/12/27 04:10:13;;;;;;;32.10;18.65;;;0.20;90.50;;;;;;5140726;27;20394;-77
2021/12/27 04:12:39;;;;;;;33.03;18.77;;;0.20;90.70;;;;;;5156940;27;20067;-77
2021/12/27 04:15:08;;;;;;;31.27;19.60;;;0.20;90.50;;;;;;5139680;27;20045;-76
2021/12/27 04:17:33;;;;;;;32.55;21.92;;;0.20;90.80;;;;;;5156947;27;20040;-76
2021/12/27 04:19:59;;;;;;;30.75;20.25;;;0.20;90.90;;;;;;5139615;27;20030;-77
2021/12/27 04:22:25;;;;;;;34.22;22.25;;;0.20;90.90;;;;;;5156953;27;20041;-77
2021/12/27 04:24:51;;;;;;;32.45;21.52;;;0.20;91.10;;;;;;5156705;27;20030;-77
2021/12/27 04:27:17;;;;;;;34.03;20.58;;;0.20;91.30;;;;;;5139671;27;20067;-77
2021/12/27 04:29:43;;;;;;;37.35;21.80;;;0.30;91.30;;;;;;5139840;27;20534;-76
2021/12/27 04:32:09;;;;;;;36.70;21.85;;;0.20;91.30;;;;;;5139579;27;20042;-76
2021/12/27 04:34:35;;;;;;;40.15;22.95;;;0.20;91.70;;;;;;5156653;27;20042;-77
2021/12/27 04:37:01;;;;;;;35.53;21.52;;;0.30;91.80;;;;;;5156750;27;20042;-75
2021/12/27 04:39:27;;;;;;;37.10;23.45;;;0.30;91.90;;;;;;5156611;27;20040;-77
2021/12/27 04:41:54;;;;;;;39.72;25.75;;;0.30;92.00;;;;;;5156609;27;20178;-76
2021/12/27 04:44:20;;;;;;;38.60;24.60;;;0.30;91.80;;;;;;5156622;27;20041;-77
2021/12/27 04:46:46;;;;;;;35.47;23.20;;;0.30;91.70;;;;;;5139601;27;20034;-77
2021/12/27 04:49:12;;;;;;;40.30;24.45;;;0.30;92.00;;;;;;5140541;27;20453;-76
2021/12/27 04:51:37;;;;;;;39.85;24.20;;;0.30;92.50;;;;;;5160963;27;20042;-76
2021/12/27 04:54:03;;;;;;;40.80;24.17;;;0.30;92.70;;;;;;5143738;27;20501;-78
2021/12/27 04:56:29;;;;;;;39.13;24.38;;;0.30;92.80;;;;;;5160406;27;20527;-76
2021/12/27 04:58:55;;;;;;;40.85;24.17;;;0.30;92.90;;;;;;5160904;27;20035;-77
2021/12/27 05:01:22;;;;;;;40.72;24.92;;;0.30;93.20;;;;;;5160527;27;20081;-76
2021/12/27 05:03:48;;;;;;;36.88;24.60;;;0.30;92.70;;;;;;5160694;27;20053;-77
2021/12/27 05:06:14;;;;;;;39.47;23.38;;;0.30;92.60;;;;;;5160186;27;20046;-77
2021/12/27 05:08:41;;;;;;;45.50;26.92;;;0.30;92.80;;;;;;5160487;27;20064;-77
2021/12/27 05:11:08;;;;;;;42.20;25.88;;;0.30;92.20;;;;;;5143112;27;20460;-76
2021/12/27 05:13:34;;;;;;;43.40;28.02;;;0.30;93.10;;;;;;5143124;27;20126;-76
2021/12/27 05:16:01;;;;;;;45.95;26.20;;;0.30;92.50;;;;;;5160523;27;20389;-77
2021/12/27 05:18:27;;;;;;;38.05;23.05;;;0.30;93.10;;;;;;5160305;27;20053;-76
2021/12/27 05:20:53;;;;;;;39.28;25.05;;;0.30;93.80;;;;;;5160404;27;20065;-77
2021/12/27 05:23:19;;;;;;;40.10;24.48;;;0.30;93.70;;;;;;5143094;27;20030;-77
2021/12/27 05:25:45;;;;;;;44.10;25.70;;;0.30;93.80;;;;;;5160020;27;20401;-76
2021/12/27 05:28:11;;;;;;;41.17;25.13;;;0.30;93.80;;;;;;5160064;27;20069;-76
2021/12/27 05:30:37;;;;;;;46.00;27.08;;;0.30;93.90;;;;;;5159991;27;20041;-77
2021/12/27 05:33:04;;;;;;;45.50;26.52;;;0.30;93.80;;;;;;5159969;27;20046;-76
2021/12/27 05:35:29;;;;;;;46.85;26.33;;;0.40;93.50;;;;;;5159589;27;20046;-76
2021/12/27 05:37:56;;;;;;;42.55;26.15;;;0.30;93.50;;;;;;5159869;27;20072;-76
2021/12/27 05:40:23;;;;;;;38.65;24.00;;;0.30;93.50;;;;;;5159842;27;20042;-76
2021/12/27 05:42:50;;;;;;;42.80;25.88;;;0.40;93.50;;;;;;5160083;27;20038;-77
2021/12/27 05:45:17;;;;;;;43.72;26.27;;;0.40;93.20;;;;;;5159743;27;20101;-77
2021/12/27 05:47:44;;;;;;;42.55;25.05;;;0.40;93.50;;;;;;5159711;27;20044;-76
2021/12/27 05:50:12;;;;;;;43.22;26.42;;;0.40;93.80;;;;;;5159596;27;20034;-77
2021/12/27 05:52:38;;;;;;;40.13;25.33;;;0.30;93.50;;;;;;5159603;27;20034;-76
2021/12/27 05:55:05;;;;;;;47.42;27.02;;;0.40;93.30;;;;;;5159248;27;20121;-76
2021/12/27 05:57:30;;;;;;;41.05;24.50;;;0.40;93.30;;;;;;5142450;27;20041;-77
2021/12/27 05:59:57;;;;;;;45.63;26.10;;;0.40;93.50;;;;;;5159321;27;20035;-76
2021/12/27 06:02:23;;;;;;;46.53;25.95;;;0.40;93.60;;;;;;5141217;27;20070;-76
2021/12/27 06:04:48;;;;;;;48.72;27.42;;;0.40;93.30;;;;;;5141901;27;20085;-77
2021/12/27 06:07:14;;;;;;;41.42;25.77;;;0.40;93.40;;;;;;5159109;27;20037;-77
2021/12/27 06:09:40;;;;;;;44.95;26.02;;;0.40;93.30;;;;;;5159473;27;20044;-74
2021/12/27 06:12:06;;;;;;;48.60;26.63;;;0.40;93.60;;;;;;5159168;27;20478;-77
2021/12/27 06:14:32;;;;;;;43.67;24.48;;;0.40;93.10;;;;;;5159075;27;20098;-76
2021/12/27 06:16:58;;;;;;;44.75;27.33;;;0.40;93.60;;;;;;5141816;27;20069;-76
2021/12/27 06:19:23;;;;;;;49.85;25.67;;;0.40;93.60;;;;;;5159043;27;20116;-77
2021/12/27 06:21:50;;;;;;;50.85;27.70;;;0.40;93.80;;;;;;5159092;27;20038;-76
2021/12/27 06:24:16;;;;;;;44.78;25.77;;;0.40;93.80;;;;;;5141716;27;20042;-77
2021/12/27 06:26:42;;;;;;;49.88;27.33;;;0.40;93.50;;;;;;5141964;27;20034;-77
2021/12/27 06:29:08;;;;;;;46.42;25.55;;;0.40;93.50;;;;;;5141639;27;20049;-77
2021/12/27 06:31:33;;;;;;;52.50;28.92;;;0.40;93.40;;;;;;5158805;27;20034;-76
2021/12/27 06:33:59;;;;;;;48.10;26.33;;;0.50;93.50;;;;;;5158698;27;20393;-77
2021/12/27 06:36:25;;;;;;;52.10;28.10;;;0.40;93.50;;;;;;5158585;27;20078;-77
2021/12/27 06:38:51;;;;;;;43.78;25.15;;;0.40;94.00;;;;;;5158944;27;20053;-76
2021/12/27 06:41:16;;;;;;;49.92;27.05;;;0.50;93.80;;;;;;5158781;27;20500;-76
2021/12/27 06:43:45;;;;;;;48.20;26.17;;;0.50;94.00;;;;;;5141350;27;20490;-76
2021/12/27 06:46:11;;;;;;;50.78;27.63;;;0.50;93.80;;;;;;5158966;27;20442;-77
2021/12/27 06:48:36;;;;;;;58.13;29.27;;;0.50;93.90;;;;;;5141152;27;20125;-77
2021/12/27 06:51:02;;;;;;;54.28;28.52;;;0.50;94.00;;;;;;5158399;27;20077;-76
2021/12/27 06:53:30;;;;;;;53.47;27.10;;;0.50;94.00;;;;;;5158189;27;20042;-78
2021/12/27 06:55:57;;;;;;;52.58;28.08;;;0.50;93.60;;;;;;5141476;27;20042;-76
2021/12/27 06:58:23;;;;;;;49.25;26.42;;;0.50;93.80;;;;;;5141028;27;20087;-77
2021/12/27 07:00:49;;;;;;;51.17;26.10;;;0.50;93.90;;;;;;5158121;27;20045;-76
2021/12/27 07:03:14;;;;;;;55.80;27.77;;;0.50;93.80;;;;;;5158104;27;20030;-77
2021/12/27 07:05:42;;;;;;;54.05;28.10;;;0.50;94.20;;;;;;5140749;27;20086;-77
2021/12/27 07:08:08;;;;;;;51.38;27.42;;;0.50;94.30;;;;;;5158137;27;20484;-77
2021/12/27 07:10:34;;;;;;;52.60;29.90;;;0.50;94.40;;;;;;5158330;27;20114;-77
2021/12/27 07:13:01;;;;;;;62.42;30.88;;;0.50;94.30;;;;;;5157820;27;20484;-77
2021/12/27 07:15:27;;;;;;;56.75;28.92;;;0.50;94.10;;;;;;5158196;27;20125;-76
2021/12/27 07:17:53;;;;;;;55.45;28.70;;;0.50;94.00;;;;;;5157853;27;20073;-77
2021/12/27 07:20:19;;;;;;;52.08;28.70;;;0.50;93.50;;;;;;5157814;27;20073;-77
2021/12/27 07:22:45;;;;;;;55.20;28.42;;;0.50;94.20;;;;;;5140580;27;20042;-77
2021/12/27 07:25:10;;;;;;;60.00;31.00;;;0.50;94.30;;;;;;5157974;27;20030;-76
2021/12/27 07:27:36;;;;;;;60.88;30.23;;;0.50;94.30;;;;;;5157664;27;20034;-77
2021/12/27 07:30:06;;;;;;;61.15;31.08;;;0.60;94.40;;;;;;5157905;27;20026;-77
2021/12/27 07:32:32;;;;;;;61.25;32.50;;;0.60;93.80;;;;;;5157633;27;20042;-76
2021/12/27 07:34:57;;;;;;;54.22;25.90;;;0.60;93.90;;;;;;5140093;27;20042;-76
2021/12/27 07:37:23;;;;;;;65.50;31.52;;;0.60;94.30;;;;;;5157736;27;20046;-78
2021/12/27 07:39:49;;;;;;;62.35;31.23;;;0.60;94.10;;;;;;5157451;27;20034;-76
2021/12/27 07:42:15;;;;;;;171.10;104.68;;;0.60;93.80;;;;;;5157450;27;20034;-78
2021/12/27 07:44:41;;;;;;;186.70;106.80;;;0.60;93.90;;;;;;5140039;27;20038;-78
2021/12/27 07:47:07;;;;;;;75.68;38.35;;;0.60;94.40;;;;;;5157359;27;20042;-77
2021/12/27 07:49:33;;;;;;;79.18;43.33;;;0.60;94.80;;;;;;5157588;27;20083;-77
2021/12/27 07:51:58;;;;;;;100.43;51.25;;;0.60;94.80;;;;;;5157203;27;20556;-77
2021/12/27 07:54:24;;;;;;;82.07;37.53;;;0.60;94.90;;;;;;5157587;27;20106;-77
2021/12/27 07:56:50;;;;;;;84.65;39.10;;;0.60;94.90;;;;;;5139801;27;20083;-76
2021/12/27 07:59:15;;;;;;;89.63;43.60;;;0.60;95.10;;;;;;5139779;27;20071;-77
2021/12/27 08:01:41;;;;;;;89.38;36.83;;;0.60;95.00;;;;;;5156848;27;20092;-78
2021/12/27 08:04:08;;;;;;;78.82;35.83;;;0.60;95.10;;;;;;5157003;27;20523;-77
2021/12/27 08:06:35;;;;;;;89.05;42.38;;;0.60;95.20;;;;;;5156471;27;20055;-76
2021/12/27 08:09:03;;;;;;;100.88;40.65;;;0.60;95.30;;;;;;5156930;27;20042;-77
2021/12/27 08:11:28;;;;;;;146.88;83.80;;;0.70;95.90;;;;;;5157180;27;20093;-77
2021/12/27 08:13:54;;;;;;;139.80;69.53;;;0.70;95.80;;;;;;5157013;27;20069;-76
2021/12/27 08:16:24;;;;;;;100.80;44.83;;;0.70;94.90;;;;;;5139653;27;20086;-77
2021/12/27 08:18:51;;;;;;;108.55;49.78;;;0.70;95.40;;;;;;5157217;27;20030;-76
2021/12/27 08:21:16;;;;;;;129.60;79.70;;;0.70;95.30;;;;;;5156884;27;20080;-77
2021/12/27 08:23:42;;;;;;;158.55;87.45;;;0.80;95.20;;;;;;5121897;27;20065;-78
2021/12/27 08:26:08;;;;;;;94.70;41.45;;;0.80;95.40;;;;;;5157064;27;20086;-77
2021/12/27 08:28:33;;;;;;;100.22;44.80;;;0.80;95.60;;;;;;5156821;27;20064;-77
2021/12/27 08:30:59;;;;;;;111.47;43.90;;;0.80;95.60;;;;;;5157009;27;20046;-78
2021/12/27 08:33:25;;;;;;;143.90;60.72;;;0.80;95.60;;;;;;5156677;27;20489;-77
2021/12/27 08:35:51;;;;;;;144.38;61.03;;;0.80;95.20;;;;;;5139371;27;20043;-77
2021/12/27 08:38:18;;;;;;;124.50;51.67;;;0.80;96.00;;;;;;5139524;27;20094;-77
2021/12/27 08:40:44;;;;;;;117.85;50.85;;;0.80;95.40;;;;;;5156796;27;20442;-79
2021/12/27 08:43:10;;;;;;;121.10;58.30;;;0.90;95.20;;;;;;5156611;27;20041;-78
2021/12/27 08:45:35;;;;;;;164.98;62.70;;;0.80;95.80;;;;;;5156601;27;20030;-78
2021/12/27 08:48:01;;;;;;;148.98;59.28;;;0.80;96.30;;;;;;5156901;27;20034;-77
2021/12/27 08:50:27;;;;;;;156.85;55.08;;;0.80;96.20;;;;;;5156313;27;20505;-77
2021/12/27 08:52:53;;;;;;;129.93;50.38;;;0.80;96.20;;;;;;5155815;27;20087;-77
2021/12/27 08:55:18;;;;;;;188.43;91.43;;;0.80;96.30;;;;;;5155547;27;20045;-78
2021/12/27 08:57:45;;;;;;;129.70;55.45;;;0.80;96.20;;;;;;5138967;27;20125;-77
2021/12/27 09:00:15;;;;;;;132.32;58.42;;;0.90;96.10;;;;;;5155889;27;20046;-78
2021/12/27 09:02:41;;;;;;;140.82;62.42;;;0.90;96.00;;;;;;5119777;27;20026;-77
2021/12/27 09:05:07;;;;;;;139.88;57.45;;;0.90;96.40;;;;;;5138585;27;20058;-78
2021/12/27 09:07:33;;;;;;;292.08;196.90;;;0.90;96.30;;;;;;5138720;27;20109;-78
2021/12/27 09:09:59;;;;;;;119.82;61.47;;;0.90;96.50;;;;;;5138736;27;20118;-77
2021/12/27 09:12:25;;;;;;;134.85;56.55;;;0.90;95.90;;;;;;5156424;27;20515;-77
2021/12/27 09:14:50;;;;;;;149.57;59.45;;;0.90;96.10;;;;;;5139053;27;20065;-78
2021/12/27 09:17:17;;;;;;;135.10;54.10;;;1.00;96.30;;;;;;5156449;27;20393;-77
2021/12/27 09:19:43;;;;;;;134.98;51.13;;;1.00;96.20;;;;;;5156409;27;20039;-76
2021/12/27 09:22:10;;;;;;;164.07;68.53;;;1.00;96.50;;;;;;5138951;27;20042;-77
2021/12/27 09:24:36;;;;;;;119.40;51.38;;;1.00;96.60;;;;;;5156180;27;20034;-77
2021/12/27 09:27:02;;;;;;;110.25;47.15;;;1.00;96.40;;;;;;5156236;27;20082;-75
2021/12/27 09:29:28;;;;;;;114.80;45.72;;;1.00;96.60;;;;;;5156579;27;20588;-78
2021/12/27 09:31:53;;;;;;;123.97;43.25;;;1.00;96.30;;;;;;5138995;27;20447;-76
2021/12/27 09:34:19;;;;;;;126.63;51.47;;;1.00;96.40;;;;;;5156549;27;20034;-79
2021/12/27 09:36:45;;;;;;;115.05;41.00;;;1.10;96.20;;;;;;5158132;27;20572;-79
2021/12/27 09:39:11;;;;;;;108.60;45.08;;;1.10;96.40;;;;;;5159857;27;20110;-77
2021/12/27 09:41:37;;;;;;;138.27;50.08;;;1.10;96.30;;;;;;5159923;27;20042;-78
2021/12/27 09:44:04;;;;;;;117.25;46.35;;;1.10;96.20;;;;;;5160158;27;20136;-77
2021/12/27 09:46:31;;;;;;;99.72;44.15;;;1.10;96.20;;;;;;5142721;27;20086;-78
2021/12/27 09:49:00;;;;;;;113.63;45.30;;;1.10;96.10;;;;;;5159992;27;20424;-77
2021/12/27 09:51:28;;;;;;;121.47;43.67;;;1.10;96.00;;;;;;5159722;27;20046;-78
2021/12/27 09:53:54;;;;;;;107.70;41.67;;;1.20;96.40;;;;;;5159651;27;20433;-79
2021/12/27 09:56:20;;;;;;;121.57;43.17;;;1.20;96.60;;;;;;5142110;27;20038;-78
2021/12/27 09:58:46;;;;;;;122.93;44.03;;;1.20;96.30;;;;;;5159479;27;20042;-77
2021/12/27 10:01:11;;;;;;;101.95;39.50;;;1.20;96.20;;;;;;5141948;27;20046;-78
2021/12/27 10:03:49;;;;;;;86.07;38.20;;;1.20;96.60;;;;;;5141952;27;20038;-78
2021/12/27 10:06:17;;;;;;;126.93;40.38;;;1.20;96.40;;;;;;5159150;27;20051;-78
2021/12/27 10:08:57;;;;;;;162.25;43.35;;;1.20;96.50;;;;;;5159492;27;20042;-76
2021/12/27 10:11:36;;;;;;;104.18;36.97;;;1.30;96.40;;;;;;5159302;27;20046;-76
2021/12/27 10:14:04;;;;;;;108.68;37.33;;;1.30;96.50;;;;;;5159475;27;20042;-76
2021/12/27 10:16:33;;;;;;;87.03;42.20;;;1.30;96.40;;;;;;5159358;27;20427;-77
2021/12/27 10:19:00;;;;;;;79.00;34.08;;;1.30;96.40;;;;;;5159113;27;20053;-77
2021/12/27 10:21:27;;;;;;;91.65;35.90;;;1.40;96.20;;;;;;5158699;27;20057;-78
2021/12/27 10:24:02;;;;;;;90.22;35.88;;;1.40;96.30;;;;;;5141700;27;20045;-77
2021/12/27 10:26:30;;;;;;;101.68;37.10;;;1.40;96.30;;;;;;5158643;27;20039;-77
2021/12/27 10:29:13;;;;;;;93.30;33.88;;;1.40;96.50;;;;;;5140431;27;20045;-78
2021/12/27 10:32:06;;;;;;;124.65;41.08;;;1.40;96.20;;;;;;5158477;27;20050;-76
2021/12/27 10:34:37;;;;;;;119.70;44.08;;;1.50;96.20;;;;;;5159053;27;20042;-78
2021/12/27 10:37:23;;;;;;;134.43;46.50;;;1.50;96.10;;;;;;5158770;27;20042;-77
2021/12/27 10:40:01;;;;;;;111.65;36.30;;;1.50;96.20;;;;;;5158680;27;20072;-76
2021/12/27 10:42:33;;;;;;;110.75;39.55;;;1.60;96.30;;;;;;5158720;27;20042;-78
2021/12/27 10:45:01;;;;;;;130.65;43.25;;;1.60;96.40;;;;;;5141247;27;20037;-78
2021/12/27 10:47:38;;;;;;;128.75;39.60;;;1.60;96.20;;;;;;5141120;27;20387;-78
2021/12/27 10:50:08;;;;;;;95.75;34.92;;;1.60;96.40;;;;;;5158825;27;20142;-78
2021/12/27 10:52:43;;;;;;;100.20;35.95;;;1.70;96.70;;;;;;5158455;27;20618;-79
2021/12/27 10:55:10;;;;;;;141.80;43.15;;;1.70;96.60;;;;;;5158305;27;20038;-78
2021/12/27 10:57:36;;;;;;;132.45;40.50;;;1.80;96.70;;;;;;5158559;27;20485;-78
2021/12/27 11:00:27;;;;;;;134.15;40.78;;;1.80;96.70;;;;;;5123982;27;20045;-78
2021/12/27 11:02:53;;;;;;;108.90;37.75;;;1.80;96.70;;;;;;5141225;27;20038;-77
2021/12/27 11:05:23;;;;;;;117.00;41.03;;;1.80;96.50;;;;;;5158135;27;20044;-78
2021/12/27 11:07:52;;;;;;;129.18;45.92;;;1.80;96.60;;;;;;5158523;27;20468;-77
2021/12/27 11:10:17;;;;;;;104.57;37.00;;;1.80;96.40;;;;;;5158416;27;20105;-78
2021/12/27 11:12:43;;;;;;;158.93;55.50;;;1.80;96.70;;;;;;5158336;27;20359;-78
2021/12/27 11:15:10;;;;;;;109.90;39.33;;;1.90;96.70;;;;;;5140672;27;20030;-78
2021/12/27 11:17:38;;;;;;;124.20;42.13;;;1.90;96.80;;;;;;5140669;27;20404;-78
2021/12/27 11:20:08;;;;;;;100.78;36.95;;;1.90;96.70;;;;;;5157875;27;20111;-77
2021/12/27 11:22:39;;;;;;;116.53;44.35;;;1.90;96.40;;;;;;5157820;27;20042;-78
2021/12/27 11:25:22;;;;;;;120.65;44.67;;;2.00;96.60;;;;;;5140740;27;20355;-79
2021/12/27 11:27:48;;;;;;;97.53;41.75;;;2.10;96.60;;;;;;5157814;27;20064;-77
2021/12/27 11:30:17;;;;;;;99.78;44.25;;;2.10;96.70;;;;;;5157804;27;20385;-77
2021/12/27 11:33:12;;;;;;;128.40;46.83;;;2.10;96.60;;;;;;5157655;27;20038;-77
2021/12/27 11:35:42;;;;;;;;;;;2.10;96.50;;;;;;5157940;27;20093;-78
2021/12/27 11:38:29;;;;;;;119.40;43.17;;;2.20;96.90;;;;;;5156990;27;19926;-77
2021/12/27 11:40:55;;;;;;;108.97;45.70;;;2.20;96.60;;;;;;5140174;27;20045;-77
2021/12/27 11:43:21;;;;;;;112.88;39.22;;;2.20;96.70;;;;;;5157639;27;20038;-78
2021/12/27 11:45:52;;;;;;;122.93;40.67;;;2.20;96.70;;;;;;5157300;27;20125;-77
2021/12/27 11:48:23;;;;;;;104.43;38.33;;;2.30;96.60;;;;;;5157693;27;20044;-78
2021/12/27 11:51:08;;;;;;;107.38;36.47;;;2.30;96.40;;;;;;5157285;27;20034;-78
2021/12/27 11:53:55;;;;;;;129.30;49.47;;;2.30;96.40;;;;;;5156584;27;20565;-78
2021/12/27 11:56:46;;;;;;;118.85;52.20;;;2.30;96.60;;;;;;5123623;27;20042;-77
2021/12/27 11:59:29;;;;;;;190.88;93.75;;;2.30;96.60;;;;;;5156369;27;20075;-77
2021/12/27 12:02:15;;;;;;;118.38;39.58;;;2.30;96.50;;;;;;5157196;27;20090;-78
2021/12/27 12:04:50;;;;;;;126.43;41.63;;;2.30;96.70;;;;;;5138901;27;20078;-77
2021/12/27 12:07:34;;;;;;;113.32;38.30;;;2.30;96.60;;;;;;5157141;27;20077;-77
2021/12/27 12:10:12;;;;;;;104.30;40.75;;;2.30;96.60;;;;;;5157075;27;20041;-79
2021/12/27 12:12:38;;;;;;;100.35;34.03;;;2.30;96.50;;;;;;5157323;27;20497;-77
2021/12/27 12:15:07;;;;;;;208.15;54.83;;;2.30;96.80;;;;;;5156424;27;20508;-76
2021/12/27 12:17:41;;;;;;;127.35;43.45;;;2.30;96.70;;;;;;5139998;27;20042;-75
2021/12/27 12:20:24;;;;;;;108.93;38.70;;;2.30;96.70;;;;;;5157114;27;20042;-77
2021/12/27 12:22:59;;;;;;;112.05;38.75;;;2.30;96.80;;;;;;5157132;27;20038;-78
2021/12/27 12:25:25;;;;;;;146.45;46.65;;;2.30;96.80;;;;;;5157080;27;20066;-78
2021/12/27 12:27:56;;;;;;;136.60;44.75;;;2.30;96.80;;;;;;5157157;27;20065;-77
2021/12/27 12:30:25;;;;;;;117.57;43.50;;;2.30;96.70;;;;;;5156768;27;20034;-78
2021/12/27 12:33:09;;;;;;;107.10;38.08;;;2.40;96.70;;;;;;5156743;27;20038;-78
2021/12/27 12:35:42;;;;;;;127.40;41.63;;;2.40;97.10;;;;;;5139846;27;20367;-78
2021/12/27 12:38:12;;;;;;;97.60;34.45;;;2.40;97.40;;;;;;5156772;27;20038;-78
2021/12/27 12:40:39;;;;;;;98.00;36.58;;;2.40;97.10;;;;;;5140068;27;20083;-77